createdAt,value
2023-02-28T00:01:11.914Z,2.05
2023-02-28T00:03:44.989Z,1.77
2023-02-28T00:06:11.579Z,2.30
2023-02-28T00:08:45.904Z,2.50
2023-02-28T00:11:20.886Z,2.15
2023-02-28T00:13:48.098Z,2.10
2023-02-28T00:16:27.909Z,2.17
2023-02-28T00:19:01.223Z,2.20
2023-02-28T00:21:33.900Z,2.03
2023-02-28T00:24:06.876Z,2.10
2023-02-28T00:26:33.628Z,2.30
2023-02-28T00:29:00.097Z,2.53
2023-02-28T00:31:32.888Z,2.50
2023-02-28T00:34:06.657Z,2.03
2023-02-28T00:36:33.136Z,2.22
2023-02-28T00:39:05.889Z,1.13
2023-02-28T00:41:38.893Z,1.35
2023-02-28T00:44:11.875Z,2.25
2023-02-28T00:46:38.492Z,2.17
2023-02-28T00:49:11.875Z,2.85
2023-02-28T00:51:38.289Z,2.20
2023-02-28T00:54:10.876Z,2.17
2023-02-28T00:56:43.940Z,1.00
2023-02-28T00:59:10.373Z,1.58
2023-02-28T01:01:42.896Z,1.27
2023-02-28T01:04:15.909Z,2.22
2023-02-28T01:06:42.598Z,2.13
2023-02-28T01:09:15.843Z,1.35
2023-02-28T01:11:44.822Z,2.13
2023-02-28T01:14:21.864Z,1.63
2023-02-28T01:16:54.836Z,1.70
2023-02-28T01:19:21.352Z,2.15
2023-02-28T01:21:53.836Z,1.30
2023-02-28T01:24:20.368Z,1.27
2023-02-28T01:26:46.822Z,2.30
2023-02-28T01:29:19.840Z,2.47
2023-02-28T01:31:46.299Z,1.67
2023-02-28T01:34:19.841Z,1.50
2023-02-28T01:36:52.826Z,1.67
2023-02-28T01:39:19.622Z,2.30
2023-02-28T01:41:52.821Z,1.70
2023-02-28T01:45:02.873Z,2.40
2023-02-28T01:47:36.221Z,2.28
2023-02-28T01:50:12.810Z,1.17
2023-02-28T01:52:40.651Z,2.08
2023-02-28T01:55:08.278Z,2.00
2023-02-28T01:57:49.835Z,2.70
2023-02-28T02:00:25.811Z,2.30
2023-02-28T02:02:56.563Z,1.45
2023-02-28T02:05:31.820Z,2.10
2023-02-28T02:08:04.319Z,2.17
2023-02-28T02:10:43.831Z,2.63
2023-02-28T02:13:43.131Z,1.98
2023-02-28T02:16:36.812Z,2.55
2023-02-28T02:19:24.794Z,2.35
2023-02-28T02:22:13.777Z,2.38
2023-02-28T02:25:02.792Z,2.75
2023-02-28T02:27:56.988Z,1.75
2023-02-28T02:30:47.815Z,2.28
2023-02-28T02:34:11.999Z,2.35
2023-02-28T02:36:56.796Z,1.85
2023-02-28T02:39:42.780Z,1.83
2023-02-28T02:42:29.765Z,2.53
2023-02-28T02:45:07.608Z,1.90
2023-02-28T02:47:41.766Z,2.03
2023-02-28T02:50:19.819Z,2.10
2023-02-28T02:52:59.759Z,1.70
2023-02-28T02:55:33.755Z,2.47
2023-02-28T02:58:11.783Z,1.88
2023-02-28T03:00:53.805Z,2.13
2023-02-28T03:03:29.927Z,1.55
2023-02-28T03:06:07.757Z,1.42
2023-02-28T03:08:40.231Z,1.40
2023-02-28T03:11:21.750Z,1.60
2023-02-28T03:14:07.593Z,1.30
2023-02-28T03:17:06.758Z,1.20
2023-02-28T03:20:13.759Z,2.97
2023-02-28T03:22:58.783Z,2.13
2023-02-28T03:25:45.777Z,2.15
2023-02-28T03:28:23.003Z,1.13
2023-02-28T03:31:03.740Z,2.55
2023-02-28T03:33:51.738Z,1.75
2023-02-28T03:36:23.479Z,2.17
2023-02-28T03:39:01.730Z,1.30
2023-02-28T03:41:42.766Z,2.05
2023-02-28T03:44:37.767Z,2.45
2023-02-28T03:47:33.618Z,1.77
2023-02-28T03:50:20.748Z,1.73
2023-02-28T03:53:08.126Z,2.47
2023-02-28T03:55:50.738Z,1.73
2023-02-28T03:58:27.517Z,1.95
2023-02-28T04:01:06.758Z,2.15
2023-02-28T04:03:39.753Z,1.67
2023-02-28T04:06:15.722Z,2.63
2023-02-28T04:08:48.740Z,2.13
2023-02-28T04:11:30.002Z,1.42
2023-02-28T04:13:56.708Z,2.30
2023-02-28T04:16:35.530Z,1.65
2023-02-28T04:19:05.740Z,1.00
2023-02-28T04:21:44.711Z,2.45
2023-02-28T04:24:15.375Z,2.38
2023-02-28T04:26:53.724Z,2.45
2023-02-28T04:29:29.714Z,1.15
2023-02-28T04:32:05.771Z,2.35
2023-02-28T04:34:33.255Z,1.98
2023-02-28T04:37:13.830Z,2.42
2023-02-28T04:39:42.080Z,2.22
2023-02-28T04:42:15.727Z,2.15
2023-02-28T04:44:42.194Z,2.38
2023-02-28T04:47:14.727Z,2.42
2023-02-28T04:49:44.644Z,2.20
2023-02-28T04:52:17.747Z,1.17
2023-02-28T04:54:44.177Z,2.60
2023-02-28T04:57:16.692Z,2.35
2023-02-28T04:59:43.482Z,2.75
2023-02-28T05:02:16.697Z,1.90
2023-02-28T05:04:50.808Z,2.65
2023-02-28T05:07:17.232Z,2.65
2023-02-28T05:09:43.639Z,2.08
2023-02-28T05:12:16.657Z,3.15
2023-02-28T05:14:49.697Z,1.98
2023-02-28T05:17:16.133Z,1.20
2023-02-28T05:19:48.672Z,1.63
2023-02-28T05:22:23.692Z,1.90
2023-02-28T05:24:56.670Z,2.28
2023-02-28T05:27:29.729Z,1.95
2023-02-28T05:30:03.652Z,0.90
2023-02-28T05:32:36.724Z,2.33
2023-02-28T05:35:09.662Z,2.38
2023-02-28T05:37:42.656Z,1.73
2023-02-28T05:40:19.779Z,2.30
2023-02-28T05:42:52.680Z,2.40
2023-02-28T05:45:19.086Z,1.60
2023-02-28T05:47:51.650Z,1.48
2023-02-28T05:50:24.899Z,1.70
2023-02-28T05:52:58.652Z,1.92
2023-02-28T05:55:31.652Z,2.40
2023-02-28T05:58:04.666Z,2.15
2023-02-28T06:00:31.074Z,1.65
2023-02-28T06:03:07.672Z,2.22
2023-02-28T06:05:34.152Z,1.17
2023-02-28T06:08:06.632Z,1.58
2023-02-28T06:10:33.121Z,1.65
2023-02-28T06:13:08.659Z,1.70
2023-02-28T06:15:35.281Z,1.77
2023-02-28T06:18:08.662Z,1.50
2023-02-28T06:20:35.468Z,1.35
2023-02-28T06:23:01.970Z,2.00
2023-02-28T06:25:41.644Z,1.75
2023-02-28T06:28:08.050Z,1.00
2023-02-28T06:30:34.692Z,1.92
2023-02-28T06:33:07.667Z,1.75
2023-02-28T06:35:34.125Z,2.00
2023-02-28T06:38:00.592Z,2.85
2023-02-28T06:40:33.638Z,1.95
2023-02-28T06:43:00.272Z,1.23
2023-02-28T06:45:33.722Z,1.30
2023-02-28T06:48:07.130Z,1.83
2023-02-28T06:50:40.619Z,1.60
2023-02-28T06:53:07.091Z,1.88
2023-02-28T06:55:39.651Z,1.83
2023-02-28T06:58:15.700Z,1.40
2023-02-28T07:00:52.622Z,1.77
2023-02-28T07:03:19.509Z,2.47
2023-02-28T07:05:52.602Z,1.40
2023-02-28T07:08:25.732Z,1.63
2023-02-28T07:10:56.066Z,1.88
2023-02-28T07:13:30.623Z,1.45
2023-02-28T07:16:09.633Z,1.92
2023-02-28T07:18:43.585Z,1.00
2023-02-28T07:21:12.422Z,2.05
2023-02-28T07:23:53.601Z,1.08
2023-02-28T07:26:27.584Z,1.90
2023-02-28T07:28:54.012Z,1.65
2023-02-28T07:31:26.730Z,0.90
2023-02-28T07:34:00.590Z,1.63
2023-02-28T07:36:27.046Z,1.23
2023-02-28T07:39:00.609Z,1.15
2023-02-28T07:41:28.894Z,2.13
2023-02-28T07:44:03.589Z,1.75
2023-02-28T07:46:36.367Z,1.15
2023-02-28T07:49:10.638Z,1.85
2023-02-28T07:51:37.156Z,2.15
2023-02-28T07:54:10.578Z,1.27
2023-02-28T07:56:37.028Z,1.92
2023-02-28T07:59:10.582Z,1.83
2023-02-28T08:01:37.015Z,1.85
2023-02-28T08:04:09.572Z,2.20
2023-02-28T08:06:36.130Z,1.63
2023-02-28T08:09:09.602Z,2.75
2023-02-28T08:11:36.071Z,1.73
2023-02-28T08:14:02.474Z,1.70
2023-02-28T08:16:35.595Z,1.67
2023-02-28T08:19:08.566Z,1.92
2023-02-28T08:21:41.584Z,2.00
2023-02-28T08:24:08.056Z,2.60
2023-02-28T08:26:40.562Z,2.88
2023-02-28T08:29:13.564Z,1.65
2023-02-28T08:31:40.010Z,2.20
2023-02-28T08:34:14.572Z,2.15
2023-02-28T08:36:47.584Z,1.75
2023-02-28T08:39:14.992Z,1.48
2023-02-28T08:41:59.076Z,1.70
2023-02-28T08:44:41.802Z,1.27
2023-02-28T08:47:15.601Z,1.80
2023-02-28T08:49:42.087Z,2.10
2023-02-28T08:52:14.575Z,2.03
2023-02-28T08:54:47.572Z,1.65
2023-02-28T08:57:20.544Z,2.10
2023-02-28T08:59:46.944Z,1.70
2023-02-28T09:02:21.574Z,1.70
2023-02-28T09:04:50.148Z,2.30
2023-02-28T09:07:23.555Z,2.00
2023-02-28T09:10:02.542Z,2.10
2023-02-28T09:12:41.548Z,2.00
2023-02-28T09:15:08.592Z,1.80
2023-02-28T09:17:41.901Z,2.00
2023-02-28T09:20:09.516Z,2.00
2023-02-28T09:22:42.520Z,1.80
2023-02-28T09:25:08.927Z,1.75
2023-02-28T09:27:42.446Z,1.60
2023-02-28T09:30:16.536Z,1.73
2023-02-28T09:32:43.030Z,2.10
2023-02-28T09:35:20.531Z,1.95
2023-02-28T09:37:53.518Z,1.75
2023-02-28T09:40:29.521Z,1.52
2023-02-28T09:43:05.528Z,1.50
2023-02-28T09:45:40.193Z,1.30
2023-02-28T09:48:23.526Z,1.45
2023-02-28T09:51:10.681Z,1.67
2023-02-28T09:53:50.429Z,2.00
2023-02-28T09:56:27.518Z,1.58
2023-02-28T09:59:22.529Z,1.92
2023-02-28T10:01:58.240Z,2.25
2023-02-28T10:04:58.608Z,1.63
2023-02-28T10:07:37.231Z,1.95
2023-02-28T10:10:21.557Z,1.58
2023-02-28T10:12:48.290Z,1.85
2023-02-28T10:15:23.510Z,2.00
2023-02-28T10:18:00.900Z,2.03
2023-02-28T10:20:44.503Z,2.40
2023-02-28T10:23:20.198Z,2.47
2023-02-28T10:26:01.522Z,1.85
2023-02-28T10:28:30.778Z,1.90
2023-02-28T10:31:04.552Z,1.73
2023-02-28T10:33:42.512Z,1.90
2023-02-28T10:36:22.519Z,2.53
2023-02-28T10:38:56.521Z,2.00
2023-02-28T10:41:43.513Z,1.67
2023-02-28T10:44:22.525Z,2.22
2023-02-28T10:46:49.909Z,2.20
2023-02-28T10:49:34.487Z,1.77
2023-02-28T10:52:08.487Z,1.70
2023-02-28T10:54:45.480Z,2.03
2023-02-28T10:57:27.339Z,1.83
2023-02-28T11:00:20.485Z,2.30
2023-02-28T11:02:47.527Z,2.67
2023-02-28T11:05:50.480Z,3.08
2023-02-28T11:08:19.227Z,1.77
2023-02-28T11:10:54.524Z,2.22
2023-02-28T11:13:34.922Z,2.22
2023-02-28T11:16:11.539Z,2.63
2023-02-28T11:18:54.488Z,2.10
2023-02-28T11:21:36.490Z,2.50
2023-02-28T11:24:18.958Z,2.10
2023-02-28T11:26:56.455Z,2.83
2023-02-28T11:29:32.472Z,2.10
2023-02-28T11:32:12.725Z,2.60
2023-02-28T11:34:48.441Z,3.00
2023-02-28T11:37:26.473Z,2.67
2023-02-28T11:39:59.468Z,2.13
2023-02-28T11:42:51.227Z,2.65
2023-02-28T11:45:55.458Z,9.93
2023-02-28T14:08:37.344Z,4.30
2023-02-28T14:11:19.412Z,4.15
2023-02-28T14:13:50.317Z,4.63
2023-02-28T14:16:36.873Z,5.22
2023-02-28T14:19:20.082Z,4.30
2023-02-28T14:52:24.472Z,3.65
2023-02-28T14:55:06.454Z,4.75
2023-02-28T14:57:42.488Z,4.80
2023-02-28T15:00:12.523Z,4.78
2023-02-28T15:02:47.466Z,4.13
2023-02-28T15:05:20.478Z,5.38
2023-02-28T15:07:48.817Z,4.47
2023-02-28T15:10:35.481Z,4.88
2023-02-28T15:13:12.188Z,4.40
2023-02-28T15:16:03.033Z,4.53
2023-02-28T15:18:53.348Z,4.70
2023-02-28T15:21:30.472Z,4.85
2023-02-28T15:24:15.470Z,5.05
2023-02-28T15:26:51.314Z,5.57
2023-02-28T15:29:30.436Z,5.80
2023-02-28T15:32:02.784Z,5.68
2023-02-28T15:34:45.445Z,6.40
2023-02-28T15:37:33.516Z,4.35
2023-02-28T15:40:20.459Z,4.38
2023-02-28T15:43:07.228Z,5.85
2023-02-28T15:45:45.472Z,5.22
2023-02-28T15:48:26.442Z,6.90
2023-02-28T15:50:59.566Z,5.68
2023-02-28T15:53:48.436Z,8.25
2023-02-28T15:56:28.875Z,9.95
2023-02-28T15:59:10.432Z,9.25
2023-02-28T16:01:46.465Z,8.70
2023-02-28T16:04:19.857Z,6.53
2023-02-28T16:06:54.423Z,5.15
2023-02-28T16:09:27.462Z,8.02
2023-02-28T16:12:03.447Z,10.52
2023-02-28T16:14:31.752Z,8.32
2023-02-28T16:17:14.425Z,5.93
2023-02-28T16:19:47.430Z,6.53
2023-02-28T16:22:13.866Z,5.93
2023-02-28T16:24:47.442Z,5.43
2023-02-28T16:27:36.656Z,4.60
2023-02-28T16:30:12.444Z,4.72
2023-02-28T16:32:38.895Z,4.38
2023-02-28T16:35:16.453Z,4.45
2023-02-28T16:37:49.432Z,4.70
2023-02-28T16:40:18.182Z,4.53
2023-02-28T16:42:53.461Z,4.47
2023-02-28T16:45:30.416Z,4.80
2023-02-28T16:47:57.138Z,4.47
2023-02-28T16:50:32.432Z,4.15
2023-02-28T16:53:05.441Z,4.32
2023-02-28T16:55:31.956Z,4.22
2023-02-28T16:58:07.437Z,4.15
2023-02-28T17:00:34.122Z,4.30
2023-02-28T17:03:07.641Z,4.38
2023-02-28T17:05:45.405Z,4.22
2023-02-28T17:08:19.249Z,4.40
2023-02-28T17:10:52.407Z,4.60
2023-02-28T17:13:18.827Z,4.60
2023-02-28T17:15:55.542Z,4.35
2023-02-28T17:18:28.410Z,3.92
2023-02-28T17:20:54.813Z,4.22
2023-02-28T17:23:21.312Z,4.45
2023-02-28T17:26:01.413Z,4.50
2023-02-28T17:28:27.864Z,4.00
2023-02-28T17:31:02.734Z,4.50
2023-02-28T17:33:30.361Z,4.60
2023-02-28T17:36:03.406Z,4.72
2023-02-28T17:38:29.893Z,4.45
2023-02-28T17:41:04.563Z,4.78
2023-02-28T17:43:31.272Z,4.20
2023-02-28T17:46:05.853Z,4.75
2023-02-28T17:48:33.429Z,4.43
2023-02-28T17:51:06.643Z,4.78
2023-02-28T17:53:33.074Z,4.68
2023-02-28T17:56:06.400Z,4.70
2023-02-28T17:58:39.386Z,4.63
2023-02-28T18:01:06.253Z,4.28
2023-02-28T18:03:41.827Z,4.60
2023-02-28T18:06:15.728Z,4.00
2023-02-28T18:08:50.412Z,4.72
2023-02-28T18:11:19.701Z,4.70
2023-02-28T18:13:58.398Z,4.35
2023-02-28T18:16:24.840Z,4.43
2023-02-28T18:18:57.439Z,4.20
2023-02-28T18:21:23.887Z,3.55
2023-02-28T18:23:58.473Z,4.53
2023-02-28T18:26:24.973Z,5.07
2023-02-28T18:28:58.389Z,4.57
2023-02-28T18:31:24.825Z,5.10
2023-02-28T18:33:52.653Z,5.38
2023-02-28T18:36:27.566Z,5.07
2023-02-28T18:39:02.382Z,4.28
2023-02-28T18:41:29.139Z,4.78
2023-02-28T18:44:13.775Z,4.70
2023-02-28T18:46:51.425Z,5.25
2023-02-28T18:49:25.424Z,5.35
